createdAt,value
2022-11-29T00:01:32.766Z,8.30
2022-11-29T00:04:00.845Z,8.30
2022-11-29T00:06:31.160Z,8.30
2022-11-29T00:09:03.291Z,8.30
2022-11-29T00:11:52.970Z,8.40
2022-11-29T00:14:20.978Z,8.40
2022-11-29T00:16:57.201Z,8.50
2022-11-29T00:19:24.809Z,8.50
2022-11-29T00:21:52.233Z,8.50
2022-11-29T00:24:19.884Z,8.50
2022-11-29T00:26:48.225Z,8.50
2022-11-29T00:29:16.152Z,8.50
2022-11-29T00:31:44.472Z,8.50
2022-11-29T00:34:12.797Z,8.50
2022-11-29T00:36:40.884Z,8.50
2022-11-29T00:39:11.982Z,8.50
2022-11-29T00:41:40.305Z,8.50
2022-11-29T00:44:08.206Z,8.60
2022-11-29T00:46:35.949Z,8.50
2022-11-29T00:49:03.716Z,8.50
2022-11-29T00:51:31.131Z,8.60
2022-11-29T00:53:58.516Z,8.60
2022-11-29T00:56:25.944Z,8.60
2022-11-29T00:58:53.332Z,8.50
2022-11-29T01:01:20.747Z,8.50
2022-11-29T01:03:48.455Z,8.50
2022-11-29T01:10:29.337Z,8.40
2022-11-29T01:12:56.855Z,8.50
2022-11-29T01:15:24.307Z,8.50
2022-11-29T01:17:51.823Z,8.50
2022-11-29T01:20:20.186Z,8.40
2022-11-29T01:22:47.787Z,8.50
2022-11-29T01:25:15.661Z,8.40
2022-11-29T01:27:43.150Z,8.50
2022-11-29T01:30:11.260Z,8.40
2022-11-29T01:32:39.078Z,8.30
2022-11-29T01:35:07.357Z,8.10
2022-11-29T01:37:34.836Z,8.10
2022-11-29T01:40:02.279Z,8.10
2022-11-29T01:42:29.625Z,8.10
2022-11-29T01:45:03.567Z,8.10
2022-11-29T01:47:31.881Z,8.10
2022-11-29T01:49:59.877Z,8.10
2022-11-29T01:52:31.852Z,8.10
2022-11-29T01:55:04.073Z,8.10
2022-11-29T01:57:32.981Z,8.10
2022-11-29T02:00:10.583Z,8.10
2022-11-29T02:03:01.713Z,8.10
2022-11-29T02:05:29.618Z,8.20
2022-11-29T02:07:59.035Z,8.10
2022-11-29T02:10:43.223Z,8.10
2022-11-29T02:13:20.354Z,8.10
2022-11-29T02:16:03.868Z,8.10
2022-11-29T02:19:03.287Z,8.20
2022-11-29T02:21:48.964Z,8.10
2022-11-29T02:24:41.777Z,8.10
2022-11-29T02:27:09.323Z,8.10
2022-11-29T02:30:08.574Z,8.10
2022-11-29T02:33:00.241Z,8.10
2022-11-29T02:35:49.159Z,8.00
2022-11-29T02:38:41.360Z,8.10
2022-11-29T02:41:35.292Z,8.10
2022-11-29T02:44:28.357Z,8.00
2022-11-29T02:47:01.429Z,8.00
2022-11-29T02:50:08.357Z,8.00
2022-11-29T02:53:13.526Z,8.00
2022-11-29T02:55:59.913Z,8.00
2022-11-29T02:58:42.593Z,8.00
2022-11-29T03:01:23.778Z,7.90
2022-11-29T03:04:09.638Z,7.90
2022-11-29T03:06:48.430Z,7.90
2022-11-29T03:09:34.409Z,7.90
2022-11-29T03:12:33.819Z,7.90
2022-11-29T03:15:20.957Z,7.90
2022-11-29T03:18:00.963Z,7.90
2022-11-29T03:20:55.414Z,7.90
2022-11-29T03:23:39.862Z,8.00
2022-11-29T03:26:22.996Z,7.90
2022-11-29T03:29:07.409Z,7.90
2022-11-29T03:31:36.366Z,7.90
2022-11-29T03:34:22.565Z,7.90
2022-11-29T03:37:16.086Z,7.80
2022-11-29T03:40:16.104Z,7.80
2022-11-29T03:43:08.978Z,7.80
2022-11-29T03:45:42.427Z,7.80
2022-11-29T03:48:15.525Z,7.80
2022-11-29T03:50:50.294Z,7.80
2022-11-29T03:53:42.080Z,7.80
2022-11-29T03:56:27.592Z,7.80
2022-11-29T03:59:24.340Z,7.70
2022-11-29T04:01:57.482Z,7.70
2022-11-29T04:05:08.551Z,7.70
2022-11-29T04:07:48.478Z,7.70
2022-11-29T04:10:28.126Z,7.60
2022-11-29T04:13:13.598Z,7.60
2022-11-29T04:15:58.970Z,7.60
2022-11-29T04:18:37.546Z,7.60
2022-11-29T04:21:42.573Z,7.60
2022-11-29T04:24:24.770Z,7.60
2022-11-29T04:26:55.221Z,7.60
2022-11-29T04:29:35.004Z,7.60
2022-11-29T04:32:26.271Z,7.60
2022-11-29T04:35:00.563Z,7.50
2022-11-29T04:37:57.153Z,7.60
2022-11-29T04:40:43.389Z,7.50
2022-11-29T04:43:41.318Z,7.50
2022-11-29T04:46:33.567Z,7.50
2022-11-29T04:49:03.873Z,7.50
2022-11-29T04:52:26.466Z,7.50
2022-11-29T04:55:07.584Z,7.50
2022-11-29T04:57:43.257Z,7.50
2022-11-29T05:00:12.519Z,7.50
2022-11-29T05:03:20.522Z,7.50
2022-11-29T05:06:27.662Z,7.40
2022-11-29T05:09:10.923Z,7.40
2022-11-29T05:12:05.401Z,7.40
2022-11-29T05:14:47.669Z,7.40
2022-11-29T05:17:50.806Z,7.40
2022-11-29T05:21:12.231Z,7.40
2022-11-29T05:24:05.366Z,7.40
2022-11-29T05:26:44.166Z,7.40
2022-11-29T05:29:19.595Z,7.40
2022-11-29T05:32:20.144Z,7.40
2022-11-29T05:35:08.911Z,7.50
2022-11-29T05:37:52.658Z,7.50
2022-11-29T05:40:43.839Z,7.50
2022-11-29T05:43:44.789Z,7.60
2022-11-29T05:46:26.968Z,7.60
2022-11-29T05:49:10.562Z,7.60
2022-11-29T05:51:45.427Z,7.60
2022-11-29T05:54:31.003Z,7.60
2022-11-29T05:57:10.234Z,7.60
2022-11-29T05:59:38.990Z,7.60
2022-11-29T06:02:15.276Z,7.60
2022-11-29T06:05:03.671Z,7.60
2022-11-29T06:07:37.707Z,7.60
2022-11-29T06:10:20.761Z,7.60
2022-11-29T06:13:15.178Z,7.60
2022-11-29T06:15:58.152Z,7.60
2022-11-29T06:18:53.496Z,7.50
2022-11-29T06:21:33.413Z,7.50
2022-11-29T06:24:24.814Z,7.50
2022-11-29T06:27:31.725Z,7.50
2022-11-29T06:30:20.929Z,7.60
2022-11-29T06:33:12.513Z,7.60
2022-11-29T06:35:59.601Z,7.60
2022-11-29T06:38:29.854Z,7.70
2022-11-29T06:41:02.082Z,7.80
2022-11-29T06:43:30.340Z,7.70
2022-11-29T06:46:24.673Z,7.80
2022-11-29T06:49:02.154Z,7.70
2022-11-29T06:51:55.795Z,7.60
2022-11-29T06:54:33.728Z,7.50
2022-11-29T06:57:26.694Z,7.50
2022-11-29T07:00:06.722Z,7.50
2022-11-29T07:02:45.863Z,7.60
2022-11-29T07:05:33.622Z,7.50
2022-11-29T07:08:18.832Z,7.50
2022-11-29T07:10:49.956Z,7.50
2022-11-29T07:13:17.817Z,7.40
2022-11-29T07:15:57.239Z,7.30
2022-11-29T07:18:39.445Z,7.40
2022-11-29T07:21:13.476Z,7.40
2022-11-29T07:24:22.141Z,7.40
2022-11-29T07:26:59.918Z,7.40
2022-11-29T07:29:36.781Z,7.40
2022-11-29T07:32:15.830Z,7.40
2022-11-29T07:35:04.192Z,7.40
2022-11-29T07:37:57.807Z,7.40
2022-11-29T07:40:40.295Z,7.50
2022-11-29T07:43:26.146Z,7.40
2022-11-29T07:45:54.949Z,7.40
2022-11-29T07:48:22.411Z,7.40
2022-11-29T07:50:49.768Z,7.40
2022-11-29T07:53:19.763Z,7.40
2022-11-29T07:55:48.340Z,7.50
2022-11-29T07:58:17.716Z,7.50
2022-11-29T08:00:45.832Z,7.40
2022-11-29T08:03:13.526Z,7.40
2022-11-29T08:05:45.662Z,7.40
2022-11-29T08:08:13.532Z,7.40
2022-11-29T08:10:40.980Z,7.40
2022-11-29T08:13:08.355Z,7.50
2022-11-29T08:15:35.772Z,7.40
2022-11-29T08:18:03.486Z,7.40
2022-11-29T08:20:30.825Z,7.40
2022-11-29T08:22:59.609Z,7.40
2022-11-29T08:25:28.257Z,7.40
2022-11-29T08:27:56.633Z,7.40
2022-11-29T08:30:24.270Z,7.40
2022-11-29T08:32:52.346Z,7.40
2022-11-29T08:35:21.304Z,7.40
2022-11-29T08:37:49.498Z,7.40
2022-11-29T08:40:17.469Z,7.40
2022-11-29T08:42:46.478Z,7.50
2022-11-29T08:45:14.019Z,7.30
2022-11-29T08:47:42.448Z,7.30
2022-11-29T08:50:17.522Z,7.30
2022-11-29T08:53:26.209Z,7.30
2022-11-29T08:55:53.588Z,7.30
2022-11-29T08:58:21.550Z,7.30
2022-11-29T09:00:49.235Z,7.30
2022-11-29T09:03:35.046Z,7.30
2022-11-29T09:06:12.047Z,7.30
2022-11-29T09:08:43.481Z,7.30
2022-11-29T09:11:17.288Z,7.30
2022-11-29T09:13:47.802Z,7.30
2022-11-29T09:16:18.351Z,7.30
2022-11-29T09:18:51.424Z,7.20
2022-11-29T09:21:19.771Z,7.30
2022-11-29T09:23:47.299Z,7.30
2022-11-29T09:26:19.834Z,7.30
2022-11-29T09:28:47.380Z,7.30
2022-11-29T09:31:17.035Z,7.20
2022-11-29T09:33:45.601Z,7.20
2022-11-29T09:36:13.212Z,7.30
2022-11-29T09:38:40.973Z,7.30
2022-11-29T09:41:32.845Z,7.30
2022-11-29T09:44:17.119Z,7.40
2022-11-29T09:47:41.911Z,7.40
2022-11-29T09:50:45.580Z,7.50
2022-11-29T09:53:30.806Z,7.50
2022-11-29T09:56:10.247Z,7.50
2022-11-29T09:58:57.113Z,7.50
2022-11-29T10:01:37.391Z,7.50
2022-11-29T10:04:12.278Z,7.50
2022-11-29T10:06:46.172Z,7.50
2022-11-29T10:09:24.533Z,7.60
2022-11-29T10:12:02.905Z,7.60
2022-11-29T10:14:42.783Z,7.50
2022-11-29T10:17:30.281Z,7.40
2022-11-29T10:20:10.511Z,7.40
2022-11-29T10:22:54.453Z,7.60
2022-11-29T10:25:48.839Z,7.70
2022-11-29T10:28:19.823Z,7.60
2022-11-29T10:30:48.502Z,7.60
2022-11-29T10:33:37.143Z,7.50
2022-11-29T10:36:36.136Z,7.60
2022-11-29T10:39:14.452Z,7.60
2022-11-29T10:41:42.297Z,7.60
2022-11-29T10:44:13.770Z,7.60
2022-11-29T10:46:41.521Z,7.60
2022-11-29T10:49:15.835Z,7.60
2022-11-29T10:51:44.045Z,7.60
2022-11-29T10:54:34.539Z,7.50
2022-11-29T10:57:02.679Z,7.50
2022-11-29T10:59:32.928Z,7.50
2022-11-29T11:02:01.753Z,7.50
2022-11-29T11:04:44.524Z,7.50
2022-11-29T11:07:28.008Z,7.60
2022-11-29T11:09:57.116Z,7.60
2022-11-29T11:12:28.808Z,7.60
2022-11-29T11:15:28.262Z,7.60
2022-11-29T11:18:05.118Z,7.60
2022-11-29T11:20:35.903Z,7.50
2022-11-29T11:23:20.887Z,7.50
2022-11-29T11:25:50.159Z,7.50
2022-11-29T11:28:26.954Z,7.40
2022-11-29T11:31:05.842Z,7.40
2022-11-29T11:33:42.335Z,7.40
2022-11-29T11:36:09.823Z,7.50
2022-11-29T11:38:49.150Z,7.50
2022-11-29T11:41:48.993Z,7.50
2022-11-29T11:44:48.333Z,7.50
2022-11-29T11:47:37.838Z,7.40
2022-11-29T11:50:16.878Z,7.40
2022-11-29T11:52:53.867Z,7.40
2022-11-29T11:55:45.509Z,7.40
2022-11-29T11:58:29.962Z,7.40
2022-11-29T12:01:06.261Z,7.40
2022-11-29T12:03:56.502Z,7.30
2022-11-29T12:06:36.968Z,7.30
2022-11-29T12:09:19.242Z,7.40
2022-11-29T12:12:01.726Z,7.40
2022-11-29T12:15:07.431Z,7.40
2022-11-29T12:17:48.594Z,7.40
2022-11-29T12:20:30.447Z,7.40
2022-11-29T12:23:13.139Z,7.30
2022-11-29T12:25:55.924Z,7.30
2022-11-29T12:28:31.984Z,7.30
2022-11-29T12:31:26.877Z,7.40
2022-11-29T12:34:13.868Z,7.40
2022-11-29T12:37:09.826Z,7.40
2022-11-29T12:39:52.427Z,7.40
2022-11-29T12:42:36.010Z,7.30
2022-11-29T12:45:15.691Z,7.30
2022-11-29T12:48:02.329Z,7.30
2022-11-29T12:50:43.865Z,7.30
2022-11-29T12:53:28.958Z,7.40
2022-11-29T12:56:10.993Z,7.40
2022-11-29T12:58:56.939Z,7.40
2022-11-29T13:01:33.681Z,7.40
2022-11-29T13:04:14.888Z,7.40
2022-11-29T13:06:46.604Z,7.40
2022-11-29T13:09:23.288Z,7.40
2022-11-29T13:12:13.469Z,7.30
2022-11-29T13:15:03.466Z,7.30
2022-11-29T13:18:00.901Z,7.30
2022-11-29T13:20:41.033Z,7.30
2022-11-29T13:24:08.019Z,7.40
2022-11-29T13:26:35.721Z,7.40
2022-11-29T13:29:04.175Z,7.30
2022-11-29T13:31:33.045Z,7.30
2022-11-29T13:34:24.098Z,7.30
2022-11-29T13:37:16.861Z,7.40
2022-11-29T13:39:52.874Z,7.40
2022-11-29T13:42:52.729Z,7.40
2022-11-29T13:45:51.977Z,7.30
2022-11-29T13:48:34.680Z,7.40
2022-11-29T13:51:25.203Z,7.40
2022-11-29T13:53:54.462Z,7.40
2022-11-29T13:56:48.535Z,7.40
2022-11-29T13:59:28.395Z,7.40
2022-11-29T14:01:57.045Z,7.30
2022-11-29T14:04:28.707Z,7.30
2022-11-29T14:07:12.271Z,7.30
2022-11-29T14:09:45.326Z,7.40
2022-11-29T14:12:18.968Z,7.40
2022-11-29T14:14:57.055Z,7.40
2022-11-29T14:17:51.217Z,7.40
2022-11-29T14:20:30.466Z,7.40
2022-11-29T14:23:07.398Z,7.30
2022-11-29T14:25:51.846Z,7.30
2022-11-29T14:28:22.694Z,7.30
2022-11-29T14:30:55.001Z,7.40
2022-11-29T14:33:29.149Z,7.40
2022-11-29T14:36:03.953Z,7.30
2022-11-29T14:39:03.432Z,7.30
2022-11-29T14:41:40.392Z,7.30
2022-11-29T14:44:19.317Z,7.30
2022-11-29T14:46:48.613Z,7.40
2022-11-29T14:49:27.559Z,7.30
2022-11-29T14:52:18.316Z,7.30
2022-11-29T14:55:16.835Z,7.30
2022-11-29T14:57:50.167Z,7.30
2022-11-29T15:00:22.250Z,7.30
2022-11-29T15:03:09.806Z,7.30
2022-11-29T15:05:41.703Z,7.10
2022-11-29T15:08:33.114Z,7.10
2022-11-29T15:11:19.241Z,7.10
2022-11-29T15:13:59.072Z,7.10
2022-11-29T15:16:41.483Z,7.10
2022-11-29T15:19:26.737Z,7.20
2022-11-29T15:21:56.893Z,7.20
2022-11-29T15:24:28.469Z,7.30
2022-11-29T15:27:04.060Z,7.30
2022-11-29T15:29:32.002Z,7.30
2022-11-29T15:32:03.560Z,7.30
2022-11-29T15:34:36.892Z,7.20
2022-11-29T15:37:04.849Z,7.20
2022-11-29T15:39:35.090Z,7.10
2022-11-29T15:42:14.249Z,7.20
2022-11-29T15:44:49.096Z,7.20
2022-11-29T15:47:25.636Z,7.20
2022-11-29T15:49:54.155Z,7.30
2022-11-29T15:52:35.874Z,7.40
2022-11-29T15:55:06.098Z,7.40
2022-11-29T15:57:35.575Z,7.40
2022-11-29T16:00:08.990Z,7.40
2022-11-29T16:02:41.446Z,7.50
2022-11-29T16:05:14.895Z,7.50
2022-11-29T16:07:44.546Z,7.40
2022-11-29T16:10:31.935Z,7.50
2022-11-29T16:13:25.968Z,7.50
2022-11-29T16:16:11.717Z,7.50
2022-11-29T16:18:41.957Z,7.40
2022-11-29T16:21:28.957Z,7.50
2022-11-29T16:23:57.478Z,7.50
2022-11-29T16:26:33.392Z,7.50
2022-11-29T16:29:01.883Z,7.50
2022-11-29T16:31:35.158Z,7.50
2022-11-29T16:34:17.771Z,7.50
2022-11-29T16:36:45.465Z,7.50
2022-11-29T16:39:31.409Z,7.60
2022-11-29T16:42:13.914Z,7.60
2022-11-29T16:44:41.476Z,7.60
2022-11-29T16:47:17.624Z,7.60
2022-11-29T16:49:45.232Z,7.60
2022-11-29T16:52:28.372Z,7.60
2022-11-29T16:54:56.081Z,7.60
2022-11-29T16:57:24.329Z,7.60
2022-11-29T16:59:52.030Z,7.60
2022-11-29T17:02:19.670Z,7.70
2022-11-29T17:04:47.736Z,7.70
2022-11-29T17:07:22.865Z,7.70
2022-11-29T17:09:50.542Z,7.60
2022-11-29T17:12:19.072Z,7.70
2022-11-29T17:14:46.789Z,7.70
2022-11-29T17:17:15.976Z,7.70
2022-11-29T17:19:43.569Z,7.70
2022-11-29T17:22:12.083Z,7.70
2022-11-29T17:24:44.793Z,7.70
2022-11-29T17:27:19.541Z,7.70
2022-11-29T17:29:47.078Z,7.70
2022-11-29T17:32:14.553Z,7.70
2022-11-29T17:34:42.014Z,7.70
2022-11-29T17:37:09.546Z,7.80
2022-11-29T17:39:37.067Z,8.00
2022-11-29T17:42:04.617Z,8.00
2022-11-29T17:44:33.958Z,8.00
2022-11-29T17:47:01.360Z,8.00
2022-11-29T17:49:28.954Z,8.00
2022-11-29T17:51:56.483Z,8.00
2022-11-29T17:54:24.441Z,7.90
2022-11-29T17:56:52.204Z,7.90
2022-11-29T17:59:20.501Z,7.90
2022-11-29T18:01:48.214Z,7.80
2022-11-29T18:04:15.852Z,7.90
2022-11-29T18:06:43.683Z,7.90
2022-11-29T18:09:12.924Z,7.80
2022-11-29T18:11:48.090Z,7.80
2022-11-29T18:14:23.511Z,7.80
2022-11-29T18:16:52.082Z,7.80
2022-11-29T18:19:21.452Z,7.80
2022-11-29T18:21:50.321Z,7.80
2022-11-29T18:24:18.803Z,7.80
2022-11-29T18:26:46.638Z,7.80
2022-11-29T18:29:14.279Z,7.80
2022-11-29T18:31:44.115Z,7.80
2022-11-29T18:34:13.773Z,7.80
2022-11-29T18:36:44.257Z,7.80
2022-11-29T18:39:17.534Z,7.80
2022-11-29T18:41:47.571Z,7.80
2022-11-29T18:44:17.087Z,7.80
2022-11-29T18:46:45.354Z,7.80
2022-11-29T18:49:15.143Z,7.80
2022-11-29T18:51:44.614Z,7.80
2022-11-29T18:54:12.795Z,7.80
2022-11-29T18:56:40.797Z,7.80
2022-11-29T18:59:14.902Z,7.80
2022-11-29T19:01:43.494Z,7.80
2022-11-29T19:04:16.697Z,7.70
2022-11-29T19:06:44.377Z,7.80
2022-11-29T19:09:16.401Z,7.80
2022-11-29T19:11:43.927Z,7.80
2022-11-29T19:14:12.751Z,7.80
2022-11-29T19:16:45.228Z,7.90
2022-11-29T19:19:13.153Z,7.80
2022-11-29T19:21:41.372Z,7.70
2022-11-29T19:24:15.750Z,7.70
2022-11-29T19:26:45.926Z,7.70
2022-11-29T19:29:14.387Z,7.70
2022-11-29T19:31:42.605Z,7.70
2022-11-29T19:34:10.615Z,7.80
2022-11-29T19:36:42.586Z,7.80
2022-11-29T19:39:12.240Z,7.80
2022-11-29T19:41:39.707Z,7.80
2022-11-29T19:44:08.421Z,7.80
2022-11-29T19:46:38.687Z,7.80
2022-11-29T19:49:08.217Z,7.80
2022-11-29T19:51:36.369Z,7.80
2022-11-29T19:54:06.333Z,7.80
2022-11-29T19:56:34.329Z,7.80
2022-11-29T19:59:01.869Z,7.80
2022-11-29T20:01:37.777Z,7.80
2022-11-29T20:08:31.844Z,7.70
2022-11-29T20:11:16.168Z,7.70
2022-11-29T20:13:46.774Z,7.70
2022-11-29T20:16:18.261Z,7.60
2022-11-29T20:18:50.935Z,7.60
2022-11-29T20:21:31.218Z,7.70
2022-11-29T20:24:06.535Z,7.70
2022-11-29T20:26:36.628Z,7.70
2022-11-29T20:29:05.467Z,7.70
2022-11-29T20:31:34.627Z,7.70
2022-11-29T20:34:02.887Z,7.70
2022-11-29T20:37:00.743Z,7.60
2022-11-29T20:39:47.185Z,7.70
2022-11-29T20:42:18.731Z,7.60
2022-11-29T20:44:53.907Z,7.60
2022-11-29T20:47:27.077Z,7.70
2022-11-29T20:49:54.725Z,7.70
2022-11-29T20:52:44.754Z,7.70
2022-11-29T20:55:12.254Z,7.60
2022-11-29T20:57:39.634Z,7.70
2022-11-29T21:00:10.427Z,7.70
2022-11-29T21:02:38.114Z,7.70
2022-11-29T21:05:06.419Z,7.70
2022-11-29T21:07:34.357Z,7.70
2022-11-29T21:10:02.227Z,7.70
2022-11-29T21:12:31.195Z,7.70
2022-11-29T21:14:58.841Z,7.70
2022-11-29T21:17:33.221Z,7.70
2022-11-29T21:20:01.636Z,7.70
2022-11-29T21:22:49.212Z,7.70
2022-11-29T21:25:39.926Z,7.70
2022-11-29T21:28:15.089Z,7.70
2022-11-29T21:30:43.674Z,7.60
2022-11-29T21:33:11.906Z,7.60
2022-11-29T21:35:40.037Z,7.60
2022-11-29T21:38:13.711Z,7.60
2022-11-29T21:40:42.393Z,7.60
2022-11-29T21:43:09.843Z,7.60
2022-11-29T21:45:37.294Z,7.60
2022-11-29T21:48:24.906Z,7.70
2022-11-29T21:50:52.334Z,7.60
2022-11-29T21:53:19.779Z,7.70
2022-11-29T21:55:47.195Z,7.70
2022-11-29T21:58:14.612Z,7.70
2022-11-29T22:00:42.021Z,7.70
2022-11-29T22:03:10.363Z,7.70
2022-11-29T22:05:37.762Z,7.70
2022-11-29T22:08:05.545Z,7.70
2022-11-29T22:10:32.899Z,7.70
2022-11-29T22:13:00.258Z,7.70
2022-11-29T22:15:28.059Z,7.80
2022-11-29T22:17:56.431Z,7.80
2022-11-29T22:20:23.923Z,7.80
2022-11-29T22:22:55.725Z,7.70
2022-11-29T22:25:26.037Z,7.70
2022-11-29T22:27:53.409Z,7.70
2022-11-29T22:30:21.034Z,7.70
2022-11-29T22:32:48.468Z,7.80
2022-11-29T22:35:16.024Z,7.80
2022-11-29T22:37:43.442Z,7.80
2022-11-29T22:40:11.547Z,7.70
2022-11-29T22:42:38.989Z,7.70
2022-11-29T22:45:06.773Z,7.70
2022-11-29T22:47:34.179Z,7.70
2022-11-29T22:50:01.544Z,7.80
2022-11-29T22:52:28.954Z,7.70
2022-11-29T22:55:01.310Z,7.70
2022-11-29T22:57:31.794Z,7.80
2022-11-29T22:59:59.240Z,7.80
2022-11-29T23:02:28.107Z,7.80
2022-11-29T23:04:55.585Z,7.80
2022-11-29T23:07:23.037Z,7.80
2022-11-29T23:09:50.447Z,7.80
2022-11-29T23:12:17.868Z,7.80
2022-11-29T23:14:45.504Z,7.80
2022-11-29T23:17:13.067Z,7.80
2022-11-29T23:19:40.416Z,7.80
2022-11-29T23:22:07.805Z,7.80
2022-11-29T23:24:35.144Z,7.80
2022-11-29T23:27:03.341Z,7.80
2022-11-29T23:29:30.705Z,7.80
2022-11-29T23:31:58.105Z,7.80
2022-11-29T23:34:25.575Z,7.70
2022-11-29T23:36:53.475Z,7.80
2022-11-29T23:39:21.311Z,7.70
2022-11-29T23:41:48.699Z,7.70
2022-11-29T23:44:16.100Z,7.70
2022-11-29T23:46:43.476Z,7.80
2022-11-29T23:49:10.854Z,7.80
2022-11-29T23:51:38.256Z,7.80
2022-11-29T23:54:05.869Z,7.80
2022-11-29T23:56:35.488Z,7.80
2022-11-29T23:59:03.754Z,7.80
